sensor_id;sensor_type;location;lat;lon;timestamp;P1;durP1;ratioP1;P2;durP2;ratioP2
68475;SDS011;55464;48.266;14.188;2024-02-04T00:00:22;3.28;;;2.88;;
68475;SDS011;55464;48.266;14.188;2024-02-04T00:02:48;4.47;;;3.10;;
68475;SDS011;55464;48.266;14.188;2024-02-04T00:05:14;4.15;;;3.08;;
68475;SDS011;55464;48.266;14.188;2024-02-04T00:07:39;3.38;;;2.90;;
68475;SDS011;55464;48.266;14.188;2024-02-04T00:10:05;5.53;;;2.80;;
68475;SDS011;55464;48.266;14.188;2024-02-04T00:12:31;4.15;;;3.10;;
68475;SDS011;55464;48.266;14.188;2024-02-04T00:14:56;6.57;;;3.33;;
68475;SDS011;55464;48.266;14.188;2024-02-04T00:17:22;4.15;;;2.90;;
68475;SDS011;55464;48.266;14.188;2024-02-04T00:19:48;4.43;;;3.03;;
68475;SDS011;55464;48.266;14.188;2024-02-04T00:22:13;4.00;;;3.28;;
68475;SDS011;55464;48.266;14.188;2024-02-04T00:24:42;3.90;;;3.20;;
68475;SDS011;55464;48.266;14.188;2024-02-04T00:27:07;4.00;;;3.28;;
68475;SDS011;55464;48.266;14.188;2024-02-04T00:29:33;3.45;;;2.95;;
68475;SDS011;55464;48.266;14.188;2024-02-04T00:31:59;3.88;;;3.15;;
68475;SDS011;55464;48.266;14.188;2024-02-04T00:34:24;3.60;;;3.15;;
68475;SDS011;55464;48.266;14.188;2024-02-04T00:36:50;4.85;;;3.85;;
68475;SDS011;55464;48.266;14.188;2024-02-04T00:39:16;4.55;;;3.95;;
68475;SDS011;55464;48.266;14.188;2024-02-04T00:41:41;4.28;;;3.47;;
68475;SDS011;55464;48.266;14.188;2024-02-04T00:44:07;4.50;;;3.58;;
68475;SDS011;55464;48.266;14.188;2024-02-04T00:46:32;4.82;;;3.80;;
68475;SDS011;55464;48.266;14.188;2024-02-04T00:48:58;5.25;;;3.60;;
68475;SDS011;55464;48.266;14.188;2024-02-04T00:51:23;7.28;;;3.90;;
68475;SDS011;55464;48.266;14.188;2024-02-04T00:53:49;5.50;;;4.13;;
68475;SDS011;55464;48.266;14.188;2024-02-04T00:56:14;3.88;;;3.30;;
68475;SDS011;55464;48.266;14.188;2024-02-04T00:58:40;6.68;;;3.95;;
68475;SDS011;55464;48.266;14.188;2024-02-04T01:01:05;4.43;;;4.03;;
68475;SDS011;55464;48.266;14.188;2024-02-04T01:03:31;8.07;;;4.25;;
68475;SDS011;55464;48.266;14.188;2024-02-04T01:05:57;6.03;;;4.00;;
68475;SDS011;55464;48.266;14.188;2024-02-04T01:08:22;4.90;;;4.15;;
68475;SDS011;55464;48.266;14.188;2024-02-04T01:10:48;8.05;;;4.35;;
68475;SDS011;55464;48.266;14.188;2024-02-04T01:13:16;5.10;;;3.95;;
68475;SDS011;55464;48.266;14.188;2024-02-04T01:15:42;5.53;;;4.45;;
68475;SDS011;55464;48.266;14.188;2024-02-04T01:18:08;4.45;;;4.05;;
68475;SDS011;55464;48.266;14.188;2024-02-04T01:20:33;5.75;;;4.38;;
68475;SDS011;55464;48.266;14.188;2024-02-04T01:22:59;4.65;;;4.03;;
68475;SDS011;55464;48.266;14.188;2024-02-04T01:25:24;5.60;;;4.47;;
68475;SDS011;55464;48.266;14.188;2024-02-04T01:27:50;4.55;;;3.75;;
68475;SDS011;55464;48.266;14.188;2024-02-04T01:30:15;5.30;;;3.78;;
68475;SDS011;55464;48.266;14.188;2024-02-04T01:32:41;7.13;;;4.25;;
68475;SDS011;55464;48.266;14.188;2024-02-04T01:35:07;6.60;;;4.18;;
68475;SDS011;55464;48.266;14.188;2024-02-04T01:37:33;5.68;;;4.38;;
68475;SDS011;55464;48.266;14.188;2024-02-04T01:39:58;5.15;;;4.40;;
68475;SDS011;55464;48.266;14.188;2024-02-04T01:42:24;5.13;;;3.63;;
68475;SDS011;55464;48.266;14.188;2024-02-04T01:44:49;6.28;;;4.63;;
68475;SDS011;55464;48.266;14.188;2024-02-04T01:47:15;6.88;;;4.65;;
68475;SDS011;55464;48.266;14.188;2024-02-04T01:49:40;5.07;;;4.25;;
68475;SDS011;55464;48.266;14.188;2024-02-04T01:52:08;4.57;;;4.18;;
68475;SDS011;55464;48.266;14.188;2024-02-04T01:54:34;6.50;;;4.45;;
68475;SDS011;55464;48.266;14.188;2024-02-04T01:57:04;6.20;;;4.37;;
68475;SDS011;55464;48.266;14.188;2024-02-04T01:59:30;7.07;;;4.47;;
68475;SDS011;55464;48.266;14.188;2024-02-04T02:02:01;5.80;;;4.25;;
68475;SDS011;55464;48.266;14.188;2024-02-04T02:04:27;5.70;;;4.43;;
68475;SDS011;55464;48.266;14.188;2024-02-04T02:06:54;5.75;;;4.50;;
68475;SDS011;55464;48.266;14.188;2024-02-04T02:09:20;5.15;;;4.63;;
68475;SDS011;55464;48.266;14.188;2024-02-04T02:11:47;5.00;;;4.07;;
68475;SDS011;55464;48.266;14.188;2024-02-04T02:14:28;5.47;;;4.40;;
68475;SDS011;55464;48.266;14.188;2024-02-04T02:16:57;4.72;;;4.13;;
68475;SDS011;55464;48.266;14.188;2024-02-04T02:19:31;7.82;;;4.85;;
68475;SDS011;55464;48.266;14.188;2024-02-04T02:24:50;6.75;;;5.05;;
68475;SDS011;55464;48.266;14.188;2024-02-04T02:27:16;6.93;;;4.68;;
68475;SDS011;55464;48.266;14.188;2024-02-04T02:29:42;5.82;;;4.32;;
68475;SDS011;55464;48.266;14.188;2024-02-04T02:32:08;8.27;;;5.20;;
68475;SDS011;55464;48.266;14.188;2024-02-04T02:34:34;5.30;;;4.45;;
68475;SDS011;55464;48.266;14.188;2024-02-04T02:37:01;4.72;;;4.30;;
68475;SDS011;55464;48.266;14.188;2024-02-04T02:39:47;6.45;;;5.32;;
68475;SDS011;55464;48.266;14.188;2024-02-04T02:42:19;5.25;;;4.28;;
68475;SDS011;55464;48.266;14.188;2024-02-04T02:44:46;6.75;;;4.70;;
68475;SDS011;55464;48.266;14.188;2024-02-04T02:47:12;5.53;;;4.95;;
68475;SDS011;55464;48.266;14.188;2024-02-04T02:49:40;6.57;;;4.28;;
68475;SDS011;55464;48.266;14.188;2024-02-04T02:52:05;7.25;;;5.00;;
68475;SDS011;55464;48.266;14.188;2024-02-04T02:54:31;5.20;;;4.70;;
68475;SDS011;55464;48.266;14.188;2024-02-04T02:56:56;6.32;;;5.15;;
68475;SDS011;55464;48.266;14.188;2024-02-04T02:59:22;5.93;;;5.10;;
68475;SDS011;55464;48.266;14.188;2024-02-04T03:01:47;5.43;;;4.78;;
68475;SDS011;55464;48.266;14.188;2024-02-04T03:04:13;7.53;;;5.10;;
68475;SDS011;55464;48.266;14.188;2024-02-04T03:06:39;6.15;;;4.68;;
68475;SDS011;55464;48.266;14.188;2024-02-04T03:09:04;5.90;;;5.13;;
68475;SDS011;55464;48.266;14.188;2024-02-04T03:11:31;6.65;;;5.35;;
68475;SDS011;55464;48.266;14.188;2024-02-04T03:13:57;6.68;;;5.30;;
68475;SDS011;55464;48.266;14.188;2024-02-04T03:16:22;8.13;;;6.03;;
68475;SDS011;55464;48.266;14.188;2024-02-04T03:18:48;7.03;;;5.32;;
68475;SDS011;55464;48.266;14.188;2024-02-04T03:21:14;7.18;;;5.70;;
68475;SDS011;55464;48.266;14.188;2024-02-04T03:23:41;5.97;;;5.38;;
68475;SDS011;55464;48.266;14.188;2024-02-04T03:26:07;7.60;;;5.75;;
68475;SDS011;55464;48.266;14.188;2024-02-04T03:28:33;6.68;;;5.70;;
68475;SDS011;55464;48.266;14.188;2024-02-04T03:30:58;6.78;;;5.32;;
68475;SDS011;55464;48.266;14.188;2024-02-04T03:33:24;6.18;;;5.57;;
68475;SDS011;55464;48.266;14.188;2024-02-04T03:35:49;7.03;;;5.63;;
68475;SDS011;55464;48.266;14.188;2024-02-04T03:38:15;7.13;;;5.63;;
68475;SDS011;55464;48.266;14.188;2024-02-04T03:40:41;8.63;;;6.00;;
68475;SDS011;55464;48.266;14.188;2024-02-04T03:43:08;7.18;;;6.03;;
68475;SDS011;55464;48.266;14.188;2024-02-04T03:45:36;7.00;;;5.43;;
68475;SDS011;55464;48.266;14.188;2024-02-04T03:48:02;7.93;;;5.82;;
68475;SDS011;55464;48.266;14.188;2024-02-04T03:50:28;10.85;;;5.68;;
68475;SDS011;55464;48.266;14.188;2024-02-04T03:52:54;7.75;;;5.78;;
68475;SDS011;55464;48.266;14.188;2024-02-04T03:55:20;6.95;;;5.68;;
68475;SDS011;55464;48.266;14.188;2024-02-04T03:57:45;8.23;;;5.75;;
68475;SDS011;55464;48.266;14.188;2024-02-04T04:00:11;7.72;;;6.43;;
68475;SDS011;55464;48.266;14.188;2024-02-04T04:02:37;6.53;;;5.50;;
68475;SDS011;55464;48.266;14.188;2024-02-04T04:05:03;5.93;;;5.32;;
68475;SDS011;55464;48.266;14.188;2024-02-04T04:07:30;8.40;;;5.75;;
68475;SDS011;55464;48.266;14.188;2024-02-04T04:09:55;7.70;;;6.22;;
68475;SDS011;55464;48.266;14.188;2024-02-04T04:12:21;6.35;;;5.45;;
68475;SDS011;55464;48.266;14.188;2024-02-04T04:14:47;7.88;;;5.80;;
68475;SDS011;55464;48.266;14.188;2024-02-04T04:17:12;9.27;;;6.32;;
68475;SDS011;55464;48.266;14.188;2024-02-04T04:19:38;7.50;;;6.25;;
68475;SDS011;55464;48.266;14.188;2024-02-04T04:22:04;9.30;;;5.88;;
68475;SDS011;55464;48.266;14.188;2024-02-04T04:24:30;7.90;;;5.78;;
68475;SDS011;55464;48.266;14.188;2024-02-04T04:26:55;6.63;;;5.50;;
68475;SDS011;55464;48.266;14.188;2024-02-04T04:29:21;7.18;;;5.38;;
68475;SDS011;55464;48.266;14.188;2024-02-04T04:31:47;9.18;;;5.25;;
68475;SDS011;55464;48.266;14.188;2024-02-04T04:34:13;6.70;;;5.47;;
68475;SDS011;55464;48.266;14.188;2024-02-04T04:36:39;9.30;;;5.80;;
68475;SDS011;55464;48.266;14.188;2024-02-04T04:39:04;8.07;;;5.45;;
68475;SDS011;55464;48.266;14.188;2024-02-04T04:41:30;6.97;;;4.85;;
68475;SDS011;55464;48.266;14.188;2024-02-04T04:43:56;7.82;;;5.07;;
68475;SDS011;55464;48.266;14.188;2024-02-04T04:46:21;6.20;;;5.05;;
68475;SDS011;55464;48.266;14.188;2024-02-04T04:48:47;6.75;;;5.00;;
68475;SDS011;55464;48.266;14.188;2024-02-04T04:51:12;6.00;;;4.95;;
68475;SDS011;55464;48.266;14.188;2024-02-04T04:53:38;6.47;;;5.40;;
68475;SDS011;55464;48.266;14.188;2024-02-04T04:56:04;7.05;;;4.78;;
68475;SDS011;55464;48.266;14.188;2024-02-04T04:58:30;5.70;;;4.35;;
68475;SDS011;55464;48.266;14.188;2024-02-04T05:00:55;6.07;;;4.30;;
68475;SDS011;55464;48.266;14.188;2024-02-04T05:03:21;5.78;;;4.50;;
68475;SDS011;55464;48.266;14.188;2024-02-04T05:05:46;5.60;;;4.45;;
68475;SDS011;55464;48.266;14.188;2024-02-04T05:08:15;5.80;;;4.22;;
68475;SDS011;55464;48.266;14.188;2024-02-04T05:10:41;5.60;;;4.53;;
68475;SDS011;55464;48.266;14.188;2024-02-04T05:13:07;5.05;;;4.10;;
68475;SDS011;55464;48.266;14.188;2024-02-04T05:15:32;4.40;;;3.65;;
68475;SDS011;55464;48.266;14.188;2024-02-04T05:17:59;4.20;;;3.67;;
68475;SDS011;55464;48.266;14.188;2024-02-04T05:20:25;4.10;;;3.40;;
68475;SDS011;55464;48.266;14.188;2024-02-04T05:22:51;3.85;;;3.45;;
68475;SDS011;55464;48.266;14.188;2024-02-04T05:25:16;3.75;;;2.88;;
68475;SDS011;55464;48.266;14.188;2024-02-04T05:27:42;4.75;;;3.50;;
68475;SDS011;55464;48.266;14.188;2024-02-04T05:30:08;3.97;;;3.10;;
68475;SDS011;55464;48.266;14.188;2024-02-04T05:32:33;3.53;;;3.10;;
68475;SDS011;55464;48.266;14.188;2024-02-04T05:34:59;4.20;;;3.15;;
68475;SDS011;55464;48.266;14.188;2024-02-04T05:37:25;4.38;;;2.92;;
68475;SDS011;55464;48.266;14.188;2024-02-04T05:39:50;4.22;;;3.42;;
68475;SDS011;55464;48.266;14.188;2024-02-04T05:42:16;4.65;;;3.03;;
68475;SDS011;55464;48.266;14.188;2024-02-04T05:44:41;3.78;;;3.38;;
68475;SDS011;55464;48.266;14.188;2024-02-04T05:47:07;2.88;;;2.63;;
68475;SDS011;55464;48.266;14.188;2024-02-04T05:49:32;3.60;;;2.90;;
68475;SDS011;55464;48.266;14.188;2024-02-04T05:51:58;5.32;;;3.13;;
68475;SDS011;55464;48.266;14.188;2024-02-04T05:54:23;3.95;;;3.20;;
68475;SDS011;55464;48.266;14.188;2024-02-04T05:56:49;4.65;;;3.30;;
68475;SDS011;55464;48.266;14.188;2024-02-04T05:59:14;3.97;;;3.28;;
68475;SDS011;55464;48.266;14.188;2024-02-04T06:01:42;3.65;;;2.85;;
68475;SDS011;55464;48.266;14.188;2024-02-04T06:04:09;3.10;;;2.80;;
68475;SDS011;55464;48.266;14.188;2024-02-04T06:06:35;4.82;;;2.42;;
68475;SDS011;55464;48.266;14.188;2024-02-04T06:09:00;3.40;;;2.85;;
68475;SDS011;55464;48.266;14.188;2024-02-04T06:11:26;3.13;;;2.83;;
68475;SDS011;55464;48.266;14.188;2024-02-04T06:13:52;3.35;;;2.75;;
68475;SDS011;55464;48.266;14.188;2024-02-04T06:16:17;2.60;;;2.40;;
68475;SDS011;55464;48.266;14.188;2024-02-04T06:18:43;4.63;;;2.45;;
68475;SDS011;55464;48.266;14.188;2024-02-04T06:21:08;4.32;;;2.75;;
68475;SDS011;55464;48.266;14.188;2024-02-04T06:23:34;2.80;;;2.60;;
68475;SDS011;55464;48.266;14.188;2024-02-04T06:26:00;3.03;;;2.35;;
68475;SDS011;55464;48.266;14.188;2024-02-04T06:28:26;2.50;;;2.13;;
68475;SDS011;55464;48.266;14.188;2024-02-04T06:30:52;2.78;;;2.42;;
68475;SDS011;55464;48.266;14.188;2024-02-04T06:33:18;2.22;;;2.00;;
68475;SDS011;55464;48.266;14.188;2024-02-04T06:35:44;2.60;;;2.20;;
68475;SDS011;55464;48.266;14.188;2024-02-04T06:38:09;2.70;;;2.50;;
68475;SDS011;55464;48.266;14.188;2024-02-04T06:40:35;2.50;;;2.00;;
68475;SDS011;55464;48.266;14.188;2024-02-04T06:43:00;2.22;;;2.03;;
68475;SDS011;55464;48.266;14.188;2024-02-04T06:45:26;2.08;;;1.98;;
68475;SDS011;55464;48.266;14.188;2024-02-04T06:47:51;3.13;;;2.05;;
68475;SDS011;55464;48.266;14.188;2024-02-04T06:50:17;2.25;;;1.85;;
68475;SDS011;55464;48.266;14.188;2024-02-04T06:52:43;2.58;;;2.38;;
68475;SDS011;55464;48.266;14.188;2024-02-04T06:55:09;2.53;;;2.05;;
68475;SDS011;55464;48.266;14.188;2024-02-04T06:57:35;2.53;;;1.98;;
68475;SDS011;55464;48.266;14.188;2024-02-04T07:00:00;1.85;;;1.75;;
68475;SDS011;55464;48.266;14.188;2024-02-04T07:02:26;2.60;;;2.30;;
68475;SDS011;55464;48.266;14.188;2024-02-04T07:04:52;3.22;;;2.22;;
68475;SDS011;55464;48.266;14.188;2024-02-04T07:07:18;1.90;;;1.67;;
68475;SDS011;55464;48.266;14.188;2024-02-04T07:09:43;3.08;;;1.80;;
68475;SDS011;55464;48.266;14.188;2024-02-04T07:12:09;2.05;;;1.85;;
68475;SDS011;55464;48.266;14.188;2024-02-04T07:14:34;2.75;;;1.90;;
68475;SDS011;55464;48.266;14.188;2024-02-04T07:17:00;2.17;;;1.92;;
68475;SDS011;55464;48.266;14.188;2024-02-04T07:19:25;2.08;;;1.77;;
68475;SDS011;55464;48.266;14.188;2024-02-04T07:21:51;2.30;;;1.90;;
68475;SDS011;55464;48.266;14.188;2024-02-04T07:24:17;3.38;;;2.03;;
68475;SDS011;55464;48.266;14.188;2024-02-04T07:26:45;2.58;;;1.90;;
68475;SDS011;55464;48.266;14.188;2024-02-04T07:29:12;2.42;;;1.80;;
68475;SDS011;55464;48.266;14.188;2024-02-04T07:31:38;1.98;;;1.88;;
68475;SDS011;55464;48.266;14.188;2024-02-04T07:34:04;1.80;;;1.70;;
68475;SDS011;55464;48.266;14.188;2024-02-04T07:36:30;2.53;;;1.77;;
68475;SDS011;55464;48.266;14.188;2024-02-04T07:38:56;2.20;;;2.00;;
68475;SDS011;55464;48.266;14.188;2024-02-04T07:41:21;2.80;;;2.30;;
68475;SDS011;55464;48.266;14.188;2024-02-04T07:43:47;2.67;;;2.38;;
68475;SDS011;55464;48.266;14.188;2024-02-04T07:46:13;3.22;;;2.10;;
68475;SDS011;55464;48.266;14.188;2024-02-04T07:48:39;2.88;;;2.03;;
68475;SDS011;55464;48.266;14.188;2024-02-04T07:51:04;2.85;;;2.28;;
68475;SDS011;55464;48.266;14.188;2024-02-04T07:53:30;2.78;;;2.40;;
68475;SDS011;55464;48.266;14.188;2024-02-04T07:55:56;2.38;;;2.13;;
68475;SDS011;55464;48.266;14.188;2024-02-04T07:58:21;2.28;;;1.88;;
68475;SDS011;55464;48.266;14.188;2024-02-04T08:00:47;3.15;;;2.40;;
68475;SDS011;55464;48.266;14.188;2024-02-04T08:03:12;2.35;;;2.00;;
68475;SDS011;55464;48.266;14.188;2024-02-04T08:05:38;2.28;;;2.08;;
68475;SDS011;55464;48.266;14.188;2024-02-04T08:08:04;2.30;;;1.95;;
68475;SDS011;55464;48.266;14.188;2024-02-04T08:10:30;3.38;;;2.38;;
68475;SDS011;55464;48.266;14.188;2024-02-04T08:12:55;2.22;;;2.03;;
68475;SDS011;55464;48.266;14.188;2024-02-04T08:15:21;2.38;;;2.17;;
68475;SDS011;55464;48.266;14.188;2024-02-04T08:17:47;2.65;;;2.45;;
68475;SDS011;55464;48.266;14.188;2024-02-04T08:20:13;2.25;;;2.05;;
68475;SDS011;55464;48.266;14.188;2024-02-04T08:22:39;2.67;;;2.00;;
68475;SDS011;55464;48.266;14.188;2024-02-04T08:25:04;2.55;;;2.10;;
68475;SDS011;55464;48.266;14.188;2024-02-04T08:27:31;2.50;;;1.90;;
68475;SDS011;55464;48.266;14.188;2024-02-04T08:29:56;2.10;;;1.80;;
68475;SDS011;55464;48.266;14.188;2024-02-04T08:32:22;2.95;;;2.10;;
68475;SDS011;55464;48.266;14.188;2024-02-04T08:34:48;2.58;;;2.33;;
68475;SDS011;55464;48.266;14.188;2024-02-04T08:37:13;2.40;;;2.00;;
68475;SDS011;55464;48.266;14.188;2024-02-04T08:39:39;1.85;;;1.73;;
68475;SDS011;55464;48.266;14.188;2024-02-04T08:42:04;2.33;;;2.10;;
68475;SDS011;55464;48.266;14.188;2024-02-04T08:44:30;1.65;;;1.55;;
68475;SDS011;55464;48.266;14.188;2024-02-04T08:46:56;2.20;;;1.92;;
68475;SDS011;55464;48.266;14.188;2024-02-04T08:49:22;1.60;;;1.50;;
68475;SDS011;55464;48.266;14.188;2024-02-04T08:51:47;4.65;;;1.83;;
68475;SDS011;55464;48.266;14.188;2024-02-04T08:54:13;1.90;;;1.80;;
68475;SDS011;55464;48.266;14.188;2024-02-04T08:56:39;2.20;;;2.00;;
68475;SDS011;55464;48.266;14.188;2024-02-04T08:59:05;2.90;;;1.90;;
68475;SDS011;55464;48.266;14.188;2024-02-04T09:01:31;2.03;;;1.88;;
68475;SDS011;55464;48.266;14.188;2024-02-04T09:03:56;2.63;;;1.50;;
68475;SDS011;55464;48.266;14.188;2024-02-04T09:06:22;1.40;;;1.30;;
68475;SDS011;55464;48.266;14.188;2024-02-04T09:08:48;1.33;;;1.23;;
68475;SDS011;55464;48.266;14.188;2024-02-04T09:11:13;1.60;;;1.42;;
68475;SDS011;55464;48.266;14.188;2024-02-04T09:16:09;1.50;;;1.38;;
68475;SDS011;55464;48.266;14.188;2024-02-04T09:18:35;1.83;;;1.70;;
68475;SDS011;55464;48.266;14.188;2024-02-04T09:21:01;2.05;;;1.75;;
68475;SDS011;55464;48.266;14.188;2024-02-04T09:23:27;2.70;;;1.63;;
68475;SDS011;55464;48.266;14.188;2024-02-04T09:25:52;2.03;;;1.63;;
68475;SDS011;55464;48.266;14.188;2024-02-04T09:28:18;2.10;;;1.88;;
68475;SDS011;55464;48.266;14.188;2024-02-04T09:30:43;1.75;;;1.60;;
68475;SDS011;55464;48.266;14.188;2024-02-04T09:33:09;6.05;;;4.80;;
68475;SDS011;55464;48.266;14.188;2024-02-04T09:35:34;3.85;;;3.13;;
68475;SDS011;55464;48.266;14.188;2024-02-04T09:38:00;5.32;;;3.60;;
68475;SDS011;55464;48.266;14.188;2024-02-04T09:40:25;6.45;;;2.50;;
68475;SDS011;55464;48.266;14.188;2024-02-04T09:42:50;1.63;;;1.50;;
68475;SDS011;55464;48.266;14.188;2024-02-04T09:45:17;2.58;;;1.60;;
68475;SDS011;55464;48.266;14.188;2024-02-04T09:47:44;2.25;;;1.80;;
68475;SDS011;55464;48.266;14.188;2024-02-04T09:50:10;1.92;;;1.83;;
68475;SDS011;55464;48.266;14.188;2024-02-04T09:52:37;3.05;;;1.98;;
68475;SDS011;55464;48.266;14.188;2024-02-04T09:55:06;1.90;;;1.70;;
68475;SDS011;55464;48.266;14.188;2024-02-04T09:57:33;2.67;;;1.52;;
68475;SDS011;55464;48.266;14.188;2024-02-04T09:59:59;2.70;;;1.40;;
68475;SDS011;55464;48.266;14.188;2024-02-04T10:02:27;1.60;;;1.40;;
68475;SDS011;55464;48.266;14.188;2024-02-04T10:04:54;1.98;;;1.40;;
68475;SDS011;55464;48.266;14.188;2024-02-04T10:07:19;2.00;;;1.58;;
68475;SDS011;55464;48.266;14.188;2024-02-04T10:09:45;1.77;;;1.67;;
68475;SDS011;55464;48.266;14.188;2024-02-04T10:12:10;2.10;;;1.80;;
68475;SDS011;55464;48.266;14.188;2024-02-04T10:14:36;1.80;;;1.48;;
68475;SDS011;55464;48.266;14.188;2024-02-04T10:17:01;2.50;;;1.52;;
68475;SDS011;55464;48.266;14.188;2024-02-04T10:19:28;3.28;;;1.50;;
68475;SDS011;55464;48.266;14.188;2024-02-04T10:22:03;1.90;;;1.50;;
68475;SDS011;55464;48.266;14.188;2024-02-04T10:24:29;1.77;;;1.35;;
68475;SDS011;55464;48.266;14.188;2024-02-04T10:26:55;2.10;;;1.52;;
68475;SDS011;55464;48.266;14.188;2024-02-04T10:29:22;2.30;;;1.52;;
68475;SDS011;55464;48.266;14.188;2024-02-04T10:31:54;1.90;;;1.33;;
68475;SDS011;55464;48.266;14.188;2024-02-04T10:34:20;3.60;;;1.60;;
68475;SDS011;55464;48.266;14.188;2024-02-04T10:36:46;3.22;;;1.48;;
68475;SDS011;55464;48.266;14.188;2024-02-04T10:39:12;3.72;;;1.67;;
68475;SDS011;55464;48.266;14.188;2024-02-04T10:41:38;2.03;;;1.58;;
68475;SDS011;55464;48.266;14.188;2024-02-04T10:44:08;3.05;;;1.55;;
68475;SDS011;55464;48.266;14.188;2024-02-04T10:46:36;4.85;;;1.70;;
68475;SDS011;55464;48.266;14.188;2024-02-04T10:49:05;1.60;;;1.50;;
68475;SDS011;55464;48.266;14.188;2024-02-04T10:51:38;3.97;;;1.65;;
68475;SDS011;55464;48.266;14.188;2024-02-04T10:54:05;1.88;;;1.52;;
68475;SDS011;55464;48.266;14.188;2024-02-04T10:56:34;1.60;;;1.50;;
68475;SDS011;55464;48.266;14.188;2024-02-04T10:59:02;2.10;;;1.83;;
68475;SDS011;55464;48.266;14.188;2024-02-04T11:01:29;2.55;;;1.80;;
68475;SDS011;55464;48.266;14.188;2024-02-04T11:03:55;1.58;;;1.33;;
68475;SDS011;55464;48.266;14.188;2024-02-04T11:06:22;5.88;;;1.83;;
68475;SDS011;55464;48.266;14.188;2024-02-04T11:08:49;2.42;;;1.50;;
68475;SDS011;55464;48.266;14.188;2024-02-04T11:13:47;1.75;;;1.50;;
68475;SDS011;55464;48.266;14.188;2024-02-04T11:16:30;2.97;;;2.03;;
68475;SDS011;55464;48.266;14.188;2024-02-04T11:28:13;1.58;;;1.20;;
68475;SDS011;55464;48.266;14.188;2024-02-04T11:30:42;1.60;;;1.50;;
68475;SDS011;55464;48.266;14.188;2024-02-04T11:33:10;2.33;;;1.58;;
68475;SDS011;55464;48.266;14.188;2024-02-04T11:35:36;1.77;;;1.60;;
68475;SDS011;55464;48.266;14.188;2024-02-04T11:38:02;2.10;;;1.60;;
68475;SDS011;55464;48.266;14.188;2024-02-04T11:40:35;3.47;;;1.42;;
68475;SDS011;55464;48.266;14.188;2024-02-04T11:43:11;1.75;;;1.65;;
68475;SDS011;55464;48.266;14.188;2024-02-04T11:45:38;1.52;;;1.30;;
68475;SDS011;55464;48.266;14.188;2024-02-04T11:48:06;1.27;;;1.17;;
68475;SDS011;55464;48.266;14.188;2024-02-04T11:50:32;2.28;;;1.23;;
68475;SDS011;55464;48.266;14.188;2024-02-04T11:53:06;1.65;;;1.17;;
68475;SDS011;55464;48.266;14.188;2024-02-04T11:55:33;1.50;;;1.40;;
68475;SDS011;55464;48.266;14.188;2024-02-04T11:58:01;1.20;;;1.10;;
68475;SDS011;55464;48.266;14.188;2024-02-04T12:00:27;2.85;;;1.25;;
68475;SDS011;55464;48.266;14.188;2024-02-04T12:03:00;1.30;;;1.20;;
68475;SDS011;55464;48.266;14.188;2024-02-04T12:05:27;1.85;;;1.10;;
68475;SDS011;55464;48.266;14.188;2024-02-04T12:07:54;1.80;;;1.23;;
68475;SDS011;55464;48.266;14.188;2024-02-04T12:10:19;1.70;;;1.20;;
68475;SDS011;55464;48.266;14.188;2024-02-04T12:12:46;1.10;;;1.02;;
68475;SDS011;55464;48.266;14.188;2024-02-04T12:15:11;2.58;;;1.48;;
68475;SDS011;55464;48.266;14.188;2024-02-04T12:17:37;2.10;;;1.08;;
68475;SDS011;55464;48.266;14.188;2024-02-04T12:20:03;2.08;;;1.30;;
68475;SDS011;55464;48.266;14.188;2024-02-04T12:22:30;1.70;;;1.20;;
68475;SDS011;55464;48.266;14.188;2024-02-04T12:24:57;1.42;;;1.20;;
68475;SDS011;55464;48.266;14.188;2024-02-04T12:27:23;3.17;;;1.15;;
68475;SDS011;55464;48.266;14.188;2024-02-04T12:29:51;1.67;;;1.15;;
68475;SDS011;55464;48.266;14.188;2024-02-04T12:32:17;1.33;;;1.20;;
68475;SDS011;55464;48.266;14.188;2024-02-04T12:34:48;2.65;;;1.00;;
68475;SDS011;55464;48.266;14.188;2024-02-04T12:37:17;1.83;;;1.10;;
68475;SDS011;55464;48.266;14.188;2024-02-04T12:39:42;1.05;;;0.95;;
68475;SDS011;55464;48.266;14.188;2024-02-04T12:42:08;1.33;;;1.17;;
68475;SDS011;55464;48.266;14.188;2024-02-04T12:44:34;2.53;;;1.25;;
68475;SDS011;55464;48.266;14.188;2024-02-04T12:46:59;2.58;;;1.15;;
68475;SDS011;55464;48.266;14.188;2024-02-04T12:49:25;1.95;;;1.20;;
68475;SDS011;55464;48.266;14.188;2024-02-04T12:51:51;1.45;;;1.20;;
68475;SDS011;55464;48.266;14.188;2024-02-04T12:54:21;0.90;;;0.85;;
68475;SDS011;55464;48.266;14.188;2024-02-04T12:56:51;1.52;;;1.30;;
68475;SDS011;55464;48.266;14.188;2024-02-04T13:01:57;2.78;;;1.42;;
68475;SDS011;55464;48.266;14.188;2024-02-04T13:04:23;1.20;;;1.10;;
68475;SDS011;55464;48.266;14.188;2024-02-04T13:06:50;2.42;;;1.25;;
68475;SDS011;55464;48.266;14.188;2024-02-04T13:09:16;1.48;;;1.00;;
68475;SDS011;55464;48.266;14.188;2024-02-04T13:11:43;1.27;;;1.17;;
68475;SDS011;55464;48.266;14.188;2024-02-04T13:14:08;1.42;;;1.30;;
68475;SDS011;55464;48.266;14.188;2024-02-04T13:16:34;1.63;;;1.20;;
68475;SDS011;55464;48.266;14.188;2024-02-04T13:19:03;2.22;;;0.93;;
68475;SDS011;55464;48.266;14.188;2024-02-04T13:21:29;2.22;;;1.20;;
68475;SDS011;55464;48.266;14.188;2024-02-04T13:23:54;1.35;;;1.10;;
68475;SDS011;55464;48.266;14.188;2024-02-04T13:26:20;1.60;;;1.50;;
68475;SDS011;55464;48.266;14.188;2024-02-04T13:28:46;3.80;;;1.10;;
68475;SDS011;55464;48.266;14.188;2024-02-04T13:31:12;1.25;;;1.10;;
68475;SDS011;55464;48.266;14.188;2024-02-04T13:33:38;0.90;;;0.90;;
68475;SDS011;55464;48.266;14.188;2024-02-04T13:36:04;0.80;;;0.80;;
68475;SDS011;55464;48.266;14.188;2024-02-04T13:38:30;1.38;;;0.90;;
68475;SDS011;55464;48.266;14.188;2024-02-04T13:40:56;1.08;;;0.98;;
68475;SDS011;55464;48.266;14.188;2024-02-04T13:43:21;2.03;;;0.90;;
68475;SDS011;55464;48.266;14.188;2024-02-04T13:45:47;1.10;;;1.02;;
68475;SDS011;55464;48.266;14.188;2024-02-04T13:48:13;3.45;;;1.10;;
68475;SDS011;55464;48.266;14.188;2024-02-04T13:50:38;2.95;;;1.30;;
68475;SDS011;55464;48.266;14.188;2024-02-04T13:53:04;2.00;;;1.33;;
68475;SDS011;55464;48.266;14.188;2024-02-04T13:55:30;2.30;;;1.40;;
68475;SDS011;55464;48.266;14.188;2024-02-04T13:57:55;1.58;;;1.30;;
68475;SDS011;55464;48.266;14.188;2024-02-04T14:00:20;1.70;;;1.38;;
68475;SDS011;55464;48.266;14.188;2024-02-04T14:02:46;1.13;;;0.95;;
68475;SDS011;55464;48.266;14.188;2024-02-04T14:05:12;1.40;;;1.30;;
68475;SDS011;55464;48.266;14.188;2024-02-04T14:07:37;1.65;;;1.13;;
68475;SDS011;55464;48.266;14.188;2024-02-04T14:10:04;1.20;;;1.10;;
68475;SDS011;55464;48.266;14.188;2024-02-04T14:12:29;1.48;;;0.82;;
68475;SDS011;55464;48.266;14.188;2024-02-04T14:14:55;1.13;;;1.02;;
68475;SDS011;55464;48.266;14.188;2024-02-04T14:17:20;2.25;;;1.38;;
68475;SDS011;55464;48.266;14.188;2024-02-04T14:19:46;1.58;;;1.02;;
68475;SDS011;55464;48.266;14.188;2024-02-04T14:22:14;1.42;;;0.98;;
68475;SDS011;55464;48.266;14.188;2024-02-04T14:24:41;0.93;;;0.90;;
68475;SDS011;55464;48.266;14.188;2024-02-04T14:27:07;0.98;;;0.73;;
68475;SDS011;55464;48.266;14.188;2024-02-04T14:29:32;1.85;;;1.20;;
68475;SDS011;55464;48.266;14.188;2024-02-04T14:31:58;1.00;;;0.77;;
68475;SDS011;55464;48.266;14.188;2024-02-04T14:34:23;1.73;;;1.10;;
68475;SDS011;55464;48.266;14.188;2024-02-04T14:36:50;1.30;;;1.20;;
68475;SDS011;55464;48.266;14.188;2024-02-04T14:39:15;1.20;;;0.90;;
68475;SDS011;55464;48.266;14.188;2024-02-04T14:41:41;1.35;;;0.90;;
68475;SDS011;55464;48.266;14.188;2024-02-04T14:44:06;3.08;;;1.13;;
68475;SDS011;55464;48.266;14.188;2024-02-04T14:46:32;0.50;;;0.50;;